createdAt,value
2019-02-18T00:00:05.002Z,982.95
2019-02-18T00:01:05.345Z,982.92
2019-02-18T00:02:05.370Z,983.04
2019-02-18T00:03:04.719Z,982.95
2019-02-18T00:04:05.126Z,982.92
2019-02-18T00:05:05.195Z,983.06
2019-02-18T00:06:05.259Z,983.06
2019-02-18T00:07:14.926Z,982.98
2019-02-18T00:08:04.601Z,983.03
2019-02-18T00:09:04.851Z,983.06
2019-02-18T00:10:04.836Z,983.03
2019-02-18T00:11:05.481Z,983.06
2019-02-18T00:12:04.492Z,982.98
2019-02-18T00:13:05.246Z,982.95
2019-02-18T00:14:05.305Z,983.00
2019-02-18T00:15:05.064Z,982.86
2019-02-18T00:16:05.495Z,982.98
2019-02-18T00:17:04.954Z,982.98
2019-02-18T00:18:05.009Z,983.04
2019-02-18T00:19:05.331Z,982.95
2019-02-18T00:20:04.535Z,983.01
2019-02-18T00:21:05.032Z,982.98
2019-02-18T00:22:05.192Z,982.95
2019-02-18T00:23:04.681Z,983.01
2019-02-18T00:24:05.037Z,983.01
2019-02-18T00:25:04.993Z,983.10
2019-02-18T00:26:04.613Z,982.90
2019-02-18T00:27:04.695Z,982.96
2019-02-18T00:28:05.378Z,983.01
2019-02-18T00:29:10.470Z,983.04
2019-02-18T00:30:04.809Z,982.96
2019-02-18T00:31:04.591Z,982.99
2019-02-18T00:32:04.598Z,982.99
2019-02-18T00:33:04.825Z,982.90
2019-02-18T00:34:04.750Z,983.02
2019-02-18T00:35:05.477Z,982.96
2019-02-18T00:36:04.627Z,982.99
2019-02-18T00:37:04.913Z,982.91
2019-02-18T00:38:05.382Z,982.88
2019-02-18T00:39:05.350Z,982.94
2019-02-18T00:40:04.574Z,982.97
2019-02-18T00:41:04.654Z,982.83
2019-02-18T00:42:04.603Z,982.91
2019-02-18T00:43:04.699Z,982.91
2019-02-18T00:44:04.991Z,983.08
2019-02-18T00:45:04.591Z,982.91
2019-02-18T00:46:04.773Z,982.91
2019-02-18T00:47:05.404Z,982.91
2019-02-18T00:48:04.580Z,982.94
2019-02-18T00:49:09.668Z,982.85
2019-02-18T00:50:05.108Z,982.97
2019-02-18T00:51:04.603Z,982.88
2019-02-18T00:52:04.711Z,983.02
2019-02-18T00:53:05.037Z,982.88
2019-02-18T00:54:05.351Z,982.99
2019-02-18T00:55:05.323Z,982.97
2019-02-18T00:56:05.337Z,982.94
2019-02-18T00:57:04.858Z,982.97
2019-02-18T00:58:05.092Z,982.97
2019-02-18T00:59:05.248Z,982.86
2019-02-18T01:00:04.916Z,982.86
2019-02-18T01:01:05.074Z,982.86
2019-02-18T01:02:05.196Z,982.83
2019-02-18T01:03:05.356Z,982.89
2019-02-18T01:04:05.426Z,982.92
2019-02-18T01:05:04.554Z,982.92
2019-02-18T01:06:04.692Z,982.89
2019-02-18T01:07:05.037Z,982.86
2019-02-18T01:08:05.262Z,982.86
2019-02-18T01:09:04.765Z,982.70
2019-02-18T01:10:04.999Z,982.81
2019-02-18T01:11:04.720Z,982.78
2019-02-18T01:12:04.736Z,982.78
2019-02-18T01:13:04.839Z,982.84
2019-02-18T01:14:04.912Z,982.87
2019-02-18T01:15:05.409Z,982.98
2019-02-18T01:16:05.036Z,982.87
2019-02-18T01:17:04.546Z,982.79
2019-02-18T01:18:04.702Z,982.68
2019-02-18T01:19:04.955Z,982.95
2019-02-18T01:20:05.434Z,982.93
2019-02-18T01:21:05.440Z,982.71
2019-02-18T01:22:04.742Z,982.74
2019-02-18T01:23:04.814Z,982.90
2019-02-18T01:24:05.394Z,982.82
2019-02-18T01:25:04.791Z,982.90
2019-02-18T01:26:04.765Z,982.79
2019-02-18T01:27:04.980Z,982.79
2019-02-18T01:28:04.942Z,982.60
2019-02-18T01:29:05.186Z,982.79
2019-02-18T01:30:05.386Z,982.72
2019-02-18T01:31:05.313Z,982.61
2019-02-18T01:32:04.934Z,982.72
2019-02-18T01:33:05.305Z,982.80
2019-02-18T01:34:04.536Z,982.72
2019-02-18T01:35:04.944Z,982.72
2019-02-18T01:36:04.599Z,982.82
2019-02-18T01:37:04.595Z,982.52
2019-02-18T01:38:05.136Z,982.58
2019-02-18T01:39:05.125Z,982.66
2019-02-18T01:40:04.758Z,982.52
2019-02-18T01:41:05.089Z,982.64
2019-02-18T01:42:10.210Z,982.66
2019-02-18T01:43:04.584Z,982.41
2019-02-18T01:44:04.950Z,982.52
2019-02-18T01:45:05.031Z,982.50
2019-02-18T01:46:04.678Z,982.64
2019-02-18T01:47:04.850Z,982.67
2019-02-18T01:48:05.107Z,982.75
2019-02-18T01:49:04.693Z,982.64
2019-02-18T01:50:04.851Z,982.47
2019-02-18T01:51:05.051Z,982.80
2019-02-18T01:52:04.887Z,982.58
2019-02-18T01:53:04.922Z,982.47
2019-02-18T01:54:05.197Z,982.58
2019-02-18T01:55:04.574Z,982.58
2019-02-18T01:56:04.951Z,982.47
2019-02-18T01:57:05.369Z,982.72
2019-02-18T01:58:04.744Z,982.59
2019-02-18T01:59:05.540Z,982.45
2019-02-18T02:00:04.527Z,982.45
2019-02-18T02:01:05.203Z,982.42
2019-02-18T02:02:10.252Z,982.47
2019-02-18T02:03:04.629Z,982.53
2019-02-18T02:04:04.766Z,982.34
2019-02-18T02:05:04.998Z,982.36
2019-02-18T02:06:05.157Z,982.45
2019-02-18T02:07:05.402Z,982.39
2019-02-18T02:08:04.988Z,982.34
2019-02-18T02:09:05.068Z,982.42
2019-02-18T02:10:05.220Z,982.36
2019-02-18T02:11:04.867Z,982.34
2019-02-18T02:12:05.042Z,982.36
2019-02-18T02:13:05.155Z,982.37
2019-02-18T02:14:05.043Z,982.20
2019-02-18T02:15:05.425Z,982.28
2019-02-18T02:16:04.746Z,982.25
2019-02-18T02:17:05.206Z,982.31
2019-02-18T02:18:05.191Z,982.28
2019-02-18T02:19:05.338Z,982.23
2019-02-18T02:20:05.028Z,982.39
2019-02-18T02:21:05.111Z,982.17
2019-02-18T02:22:05.294Z,982.40
2019-02-18T02:23:04.687Z,982.17
2019-02-18T02:24:04.719Z,982.17
2019-02-18T02:25:05.487Z,982.15
2019-02-18T02:26:05.609Z,982.26
2019-02-18T02:27:04.806Z,982.23
2019-02-18T02:28:05.241Z,982.23
2019-02-18T02:29:05.293Z,982.29
2019-02-18T02:30:04.618Z,982.23
2019-02-18T02:31:04.811Z,982.21
2019-02-18T02:32:04.789Z,982.21
2019-02-18T02:33:09.886Z,982.18
2019-02-18T02:34:05.375Z,982.18
2019-02-18T02:35:04.963Z,982.23
2019-02-18T02:36:04.978Z,982.15
2019-02-18T02:37:05.389Z,982.21
2019-02-18T02:38:08.284Z,982.32
2019-02-18T02:39:05.087Z,982.18
2019-02-18T02:40:05.371Z,982.15
2019-02-18T02:41:05.190Z,982.07
2019-02-18T02:42:04.885Z,982.07
2019-02-18T02:43:04.877Z,982.15
2019-02-18T02:44:05.202Z,982.15
2019-02-18T02:45:05.467Z,982.07
2019-02-18T02:46:05.422Z,982.10
2019-02-18T02:47:04.979Z,981.90
2019-02-18T02:48:05.081Z,982.02
2019-02-18T02:49:05.262Z,981.99
2019-02-18T02:50:04.543Z,981.99
2019-02-18T02:51:04.684Z,981.93
2019-02-18T02:52:05.392Z,982.07
2019-02-18T02:53:04.457Z,981.94
2019-02-18T02:54:04.667Z,981.91
2019-02-18T02:55:04.677Z,981.83
2019-02-18T02:56:04.774Z,981.91
2019-02-18T02:57:05.067Z,981.91
2019-02-18T02:58:04.535Z,981.99
2019-02-18T02:59:05.177Z,981.91
2019-02-18T03:00:05.432Z,981.91
2019-02-18T03:01:04.530Z,981.91
2019-02-18T03:02:05.051Z,981.91
2019-02-18T03:03:05.483Z,982.08
2019-02-18T03:04:05.084Z,982.08
2019-02-18T03:05:05.553Z,982.03
2019-02-18T03:06:04.662Z,982.03
2019-02-18T03:07:09.684Z,982.00
2019-02-18T03:08:05.132Z,982.08
2019-02-18T03:09:05.293Z,981.97
2019-02-18T03:10:05.208Z,982.11
2019-02-18T03:11:04.616Z,982.03
2019-02-18T03:12:04.701Z,981.97
2019-02-18T03:13:04.924Z,982.03
2019-02-18T03:14:04.907Z,982.02
2019-02-18T03:15:04.472Z,982.00
2019-02-18T03:16:04.673Z,981.83
2019-02-18T03:17:05.200Z,981.80
2019-02-18T03:18:05.522Z,982.03
2019-02-18T03:19:04.959Z,981.91
2019-02-18T03:20:04.937Z,982.00
2019-02-18T03:21:05.107Z,981.91
2019-02-18T03:22:05.496Z,981.94
2019-02-18T03:23:05.491Z,982.00
2019-02-18T03:24:04.558Z,981.94
2019-02-18T03:25:05.104Z,981.91
2019-02-18T03:26:05.019Z,982.00
2019-02-18T03:27:04.701Z,981.91
2019-02-18T03:28:05.491Z,982.00
2019-02-18T03:29:09.954Z,981.94
2019-02-18T03:30:05.447Z,981.91
2019-02-18T03:31:05.020Z,981.80
2019-02-18T03:32:05.016Z,981.97
2019-02-18T03:33:05.611Z,982.02
2019-02-18T03:34:04.956Z,982.02
2019-02-18T03:35:05.062Z,981.94
2019-02-18T03:36:05.206Z,981.97
2019-02-18T03:37:04.584Z,981.97
2019-02-18T03:38:04.690Z,981.80
2019-02-18T03:39:05.016Z,981.86
2019-02-18T03:40:04.915Z,981.97
2019-02-18T03:41:05.568Z,981.91
2019-02-18T03:42:05.014Z,981.80
2019-02-18T03:43:04.637Z,982.08
2019-02-18T03:44:05.121Z,981.77
2019-02-18T03:45:05.149Z,982.03
2019-02-18T03:46:05.264Z,981.83
2019-02-18T03:47:04.844Z,981.97
2019-02-18T03:48:04.975Z,981.83
2019-02-18T03:49:10.224Z,981.81
2019-02-18T03:50:04.621Z,981.84
2019-02-18T03:51:04.843Z,981.78
2019-02-18T03:52:04.984Z,981.95
2019-02-18T03:53:04.609Z,981.81
2019-02-18T03:54:04.627Z,981.95
2019-02-18T03:55:05.193Z,981.73
2019-02-18T03:56:05.412Z,981.81
2019-02-18T03:57:05.108Z,981.90
2019-02-18T03:58:05.175Z,981.87
2019-02-18T03:59:04.712Z,981.90
2019-02-18T04:00:04.739Z,981.87
2019-02-18T04:01:04.909Z,981.96
2019-02-18T04:02:05.391Z,981.82
2019-02-18T04:03:04.724Z,981.76
2019-02-18T04:04:04.971Z,981.79
2019-02-18T04:05:05.140Z,981.76
2019-02-18T04:06:05.189Z,981.77
2019-02-18T04:07:05.255Z,981.79
2019-02-18T04:08:04.577Z,981.77
2019-02-18T04:09:04.779Z,981.85
2019-02-18T04:10:05.275Z,981.85
2019-02-18T04:11:05.193Z,981.83
2019-02-18T04:12:04.520Z,981.77
2019-02-18T04:13:04.621Z,981.69
2019-02-18T04:14:04.811Z,981.69
2019-02-18T04:15:05.257Z,981.83
2019-02-18T04:16:04.802Z,981.88
2019-02-18T04:17:05.376Z,981.91
2019-02-18T04:18:04.847Z,981.83
2019-02-18T04:19:05.301Z,981.77
2019-02-18T04:20:05.384Z,981.80
2019-02-18T04:21:04.829Z,981.69
2019-02-18T04:22:05.239Z,981.72
2019-02-18T04:23:04.741Z,981.77
2019-02-18T04:24:05.250Z,981.75
2019-02-18T04:25:04.572Z,981.80
2019-02-18T04:26:04.832Z,981.77
2019-02-18T04:27:04.960Z,981.97
2019-02-18T04:28:05.424Z,981.83
2019-02-18T04:29:10.557Z,981.66
2019-02-18T04:30:05.154Z,981.83
2019-02-18T04:31:05.245Z,981.78
2019-02-18T04:32:05.293Z,981.83
2019-02-18T04:33:05.119Z,981.72
2019-02-18T04:34:05.553Z,981.72
2019-02-18T04:35:04.580Z,981.61
2019-02-18T04:36:04.611Z,981.73
2019-02-18T04:37:04.740Z,981.73
2019-02-18T04:38:05.004Z,981.75
2019-02-18T04:39:04.874Z,981.73
2019-02-18T04:40:05.022Z,981.87
2019-02-18T04:41:04.510Z,981.70
2019-02-18T04:42:04.695Z,981.78
2019-02-18T04:43:04.720Z,981.73
2019-02-18T04:44:04.937Z,981.67
2019-02-18T04:45:05.649Z,981.76
2019-02-18T04:46:05.429Z,981.68
2019-02-18T04:47:04.682Z,981.68
2019-02-18T04:48:04.817Z,981.82
2019-02-18T04:49:09.718Z,981.76
2019-02-18T04:50:05.122Z,981.59
2019-02-18T04:51:05.326Z,981.62
2019-02-18T04:52:05.371Z,981.60
2019-02-18T04:53:05.599Z,981.82
2019-02-18T04:54:04.546Z,981.68
2019-02-18T04:55:04.677Z,981.68
2019-02-18T04:56:04.803Z,981.74
2019-02-18T04:57:05.122Z,981.68
2019-02-18T04:58:06.641Z,981.63
2019-02-18T04:59:05.413Z,981.74
2019-02-18T05:00:04.649Z,981.68
2019-02-18T05:01:04.626Z,981.68
2019-02-18T05:02:04.618Z,981.74
2019-02-18T05:03:05.229Z,981.90
2019-02-18T05:04:05.209Z,981.79
2019-02-18T05:05:05.465Z,981.63
2019-02-18T05:06:04.648Z,981.71
2019-02-18T05:07:04.981Z,981.68
2019-02-18T05:08:05.279Z,981.71
2019-02-18T05:09:06.226Z,981.71
2019-02-18T05:10:04.850Z,981.74
2019-02-18T05:11:05.107Z,981.66
2019-02-18T05:12:04.634Z,981.71
2019-02-18T05:13:04.748Z,981.69
2019-02-18T05:14:05.090Z,981.66
2019-02-18T05:15:04.679Z,981.74
2019-02-18T05:16:04.824Z,981.69
2019-02-18T05:17:05.053Z,981.69
2019-02-18T05:18:05.451Z,981.53
2019-02-18T05:19:04.495Z,981.66
2019-02-18T05:20:04.732Z,981.63
2019-02-18T05:21:04.856Z,981.63
2019-02-18T05:22:05.198Z,981.63
2019-02-18T05:23:04.510Z,981.63
2019-02-18T05:24:04.742Z,981.63
2019-02-18T05:25:05.410Z,981.72
2019-02-18T05:26:04.915Z,981.56
2019-02-18T05:27:04.944Z,981.63
2019-02-18T05:28:05.173Z,981.63
2019-02-18T05:29:05.214Z,981.63
2019-02-18T05:30:05.000Z,981.51
2019-02-18T05:31:05.128Z,981.72
2019-02-18T05:32:05.310Z,981.61
2019-02-18T05:33:04.543Z,981.61
2019-02-18T05:34:05.274Z,981.69
2019-02-18T05:35:04.756Z,981.58
2019-02-18T05:36:04.768Z,981.78
2019-02-18T05:37:04.911Z,981.72
2019-02-18T05:38:05.164Z,981.80
2019-02-18T05:39:18.569Z,981.64
2019-02-18T05:40:05.253Z,981.58
2019-02-18T05:41:05.288Z,981.69
2019-02-18T05:42:04.637Z,981.75
2019-02-18T05:43:04.827Z,981.67
2019-02-18T05:44:04.758Z,981.67
2019-02-18T05:45:04.799Z,981.61
2019-02-18T05:46:05.298Z,981.72
2019-02-18T05:47:05.462Z,981.64
2019-02-18T05:48:05.448Z,981.67
2019-02-18T05:49:09.649Z,981.80
2019-02-18T05:50:05.107Z,981.75
2019-02-18T05:51:05.194Z,981.75
2019-02-18T05:52:04.748Z,981.67
2019-02-18T05:53:05.037Z,981.75
2019-02-18T05:54:05.275Z,981.72
2019-02-18T05:55:05.381Z,981.78
2019-02-18T05:56:04.847Z,981.72
2019-02-18T05:57:05.305Z,981.67
2019-02-18T05:58:05.312Z,981.61
2019-02-18T05:59:04.997Z,981.56
2019-02-18T06:00:05.432Z,981.58
2019-02-18T06:01:05.452Z,981.56
2019-02-18T06:02:04.657Z,981.72
2019-02-18T06:03:04.769Z,981.78
2019-02-18T06:04:04.965Z,981.70
2019-02-18T06:05:05.579Z,981.89
2019-02-18T06:06:04.956Z,981.67
2019-02-18T06:07:05.048Z,981.67
2019-02-18T06:08:04.739Z,981.70
2019-02-18T06:09:05.502Z,981.70
2019-02-18T06:10:04.839Z,981.75
2019-02-18T06:11:05.144Z,981.78
2019-02-18T06:12:05.292Z,981.76
2019-02-18T06:13:04.701Z,981.67
2019-02-18T06:14:05.054Z,981.70
2019-02-18T06:15:05.007Z,981.81
2019-02-18T06:16:05.011Z,981.76
2019-02-18T06:17:05.320Z,981.73
2019-02-18T06:18:04.619Z,981.70
2019-02-18T06:19:04.772Z,981.59
2019-02-18T06:20:04.749Z,981.67
2019-02-18T06:21:05.328Z,981.62
2019-02-18T06:22:05.034Z,981.67
2019-02-18T06:23:05.104Z,981.73
2019-02-18T06:24:04.607Z,981.70
2019-02-18T06:25:05.118Z,981.62
2019-02-18T06:26:05.097Z,981.67
2019-02-18T06:27:05.299Z,981.67
2019-02-18T06:28:05.381Z,981.73
2019-02-18T06:29:09.946Z,981.84
2019-02-18T06:30:05.609Z,981.73
2019-02-18T06:31:04.655Z,981.76
2019-02-18T06:32:04.952Z,981.81
2019-02-18T06:33:04.664Z,981.65
2019-02-18T06:34:05.446Z,981.73
2019-02-18T06:35:04.539Z,981.73
2019-02-18T06:36:04.707Z,981.76
2019-02-18T06:37:05.143Z,981.79
2019-02-18T06:38:05.439Z,981.62
2019-02-18T06:39:05.571Z,981.84
2019-02-18T06:40:05.126Z,981.73
2019-02-18T06:41:04.645Z,981.73
2019-02-18T06:42:04.741Z,981.96
2019-02-18T06:43:05.017Z,981.87
2019-02-18T06:44:05.193Z,981.84
2019-02-18T06:45:04.662Z,981.82
2019-02-18T06:46:04.882Z,981.79
2019-02-18T06:47:04.959Z,981.79
2019-02-18T06:48:05.418Z,981.96
2019-02-18T06:49:04.845Z,981.96
2019-02-18T06:50:05.296Z,981.87
2019-02-18T06:51:04.780Z,981.87
2019-02-18T06:52:04.726Z,981.90
2019-02-18T06:53:04.889Z,981.87
2019-02-18T06:54:05.413Z,982.01
2019-02-18T06:55:05.436Z,981.90
2019-02-18T06:56:04.749Z,981.96
2019-02-18T06:57:05.049Z,981.87
2019-02-18T06:58:05.324Z,981.96
2019-02-18T06:59:04.938Z,981.87
2019-02-18T07:00:04.596Z,981.96
2019-02-18T07:01:04.816Z,981.98
2019-02-18T07:02:04.558Z,982.10
2019-02-18T07:03:04.944Z,982.07
2019-02-18T07:04:05.316Z,981.98
2019-02-18T07:05:05.456Z,982.18
2019-02-18T07:06:09.924Z,982.07
2019-02-18T07:07:04.821Z,982.01
2019-02-18T07:08:05.440Z,981.98
2019-02-18T07:09:05.061Z,982.06
2019-02-18T07:10:05.555Z,982.12
2019-02-18T07:11:05.537Z,982.15
2019-02-18T07:12:04.801Z,982.12
2019-02-18T07:13:05.333Z,982.09
2019-02-18T07:14:05.889Z,981.97
2019-02-18T07:15:05.243Z,982.00
2019-02-18T07:16:05.537Z,982.02
2019-02-18T07:17:04.782Z,982.08
2019-02-18T07:18:04.835Z,982.13
2019-02-18T07:19:04.943Z,982.15
2019-02-18T07:20:05.095Z,981.95
2019-02-18T07:21:04.694Z,982.06
2019-02-18T07:22:04.841Z,982.05
2019-02-18T07:23:05.412Z,981.99
2019-02-18T07:24:04.717Z,982.10
2019-02-18T07:25:05.181Z,982.18
2019-02-18T07:26:05.020Z,982.09
2019-02-18T07:27:05.110Z,982.14
2019-02-18T07:28:04.620Z,982.02
2019-02-18T07:29:05.148Z,982.02
2019-02-18T07:30:05.313Z,982.01
2019-02-18T07:31:04.788Z,982.00
2019-02-18T07:32:04.959Z,982.08
2019-02-18T07:33:05.035Z,982.05
2019-02-18T07:34:04.671Z,982.07
2019-02-18T07:35:04.575Z,982.01
2019-02-18T07:36:05.218Z,982.09
2019-02-18T07:37:05.360Z,982.09
2019-02-18T07:38:05.485Z,982.03
2019-02-18T07:39:04.683Z,982.08
2019-02-18T07:40:09.698Z,981.96
2019-02-18T07:41:04.990Z,982.13
2019-02-18T07:42:05.179Z,982.15
2019-02-18T07:43:04.447Z,982.12
2019-02-18T07:44:04.803Z,982.12
2019-02-18T07:45:05.043Z,982.06
2019-02-18T07:46:05.533Z,982.17
2019-02-18T07:47:04.863Z,981.97
2019-02-18T07:48:04.584Z,981.94
2019-02-18T07:49:04.692Z,982.02
2019-02-18T07:50:04.779Z,982.07
2019-02-18T07:51:04.852Z,982.01
2019-02-18T07:52:05.479Z,981.92
2019-02-18T07:53:04.926Z,981.98
2019-02-18T07:54:04.971Z,982.06
2019-02-18T07:55:05.385Z,982.00
2019-02-18T07:56:04.550Z,982.05
2019-02-18T07:57:05.231Z,981.97
2019-02-18T07:58:05.380Z,982.05
2019-02-18T07:59:05.580Z,982.02
2019-02-18T08:00:09.982Z,982.13
2019-02-18T08:01:05.336Z,982.01
2019-02-18T08:02:04.564Z,981.95
2019-02-18T08:03:04.780Z,981.92
2019-02-18T08:04:04.922Z,981.86
2019-02-18T08:05:04.602Z,981.92
2019-02-18T08:06:05.339Z,981.89
2019-02-18T08:07:05.453Z,981.97
2019-02-18T08:08:05.551Z,982.03
2019-02-18T08:09:04.707Z,981.94
2019-02-18T08:10:12.603Z,981.85
2019-02-18T08:11:05.300Z,981.96
2019-02-18T08:12:04.908Z,981.71
2019-02-18T08:13:04.538Z,981.93
2019-02-18T08:14:04.614Z,981.84
2019-02-18T08:15:05.286Z,982.01
2019-02-18T08:16:05.459Z,981.90
2019-02-18T08:17:04.743Z,981.84
2019-02-18T08:18:05.098Z,981.89
2019-02-18T08:19:05.244Z,981.95
2019-02-18T08:20:05.434Z,981.81
2019-02-18T08:21:05.031Z,981.89
2019-02-18T08:22:05.233Z,981.97
2019-02-18T08:23:05.583Z,981.91
2019-02-18T08:24:04.952Z,981.94
2019-02-18T08:25:05.429Z,981.85
2019-02-18T08:26:04.803Z,981.97
2019-02-18T08:27:05.046Z,981.88
2019-02-18T08:28:05.334Z,981.77
2019-02-18T08:29:09.716Z,981.91
2019-02-18T08:30:05.157Z,981.88
2019-02-18T08:31:05.278Z,981.82
2019-02-18T08:32:04.533Z,981.82
2019-02-18T08:33:04.784Z,981.85
2019-02-18T08:34:04.913Z,981.71
2019-02-18T08:35:05.086Z,981.85
2019-02-18T08:36:05.316Z,981.85
2019-02-18T08:37:05.522Z,981.82
2019-02-18T08:38:05.049Z,981.84
2019-02-18T08:39:04.992Z,981.79
2019-02-18T08:40:05.095Z,981.95
2019-02-18T08:41:04.741Z,981.76
2019-02-18T08:42:04.977Z,981.73
2019-02-18T08:43:05.626Z,981.78
2019-02-18T08:44:04.683Z,981.89
2019-02-18T08:45:04.865Z,981.78
2019-02-18T08:46:05.127Z,981.78
2019-02-18T08:47:04.806Z,981.81
2019-02-18T08:48:05.030Z,981.83
2019-02-18T08:49:10.179Z,981.83
2019-02-18T08:50:04.643Z,981.81
2019-02-18T08:51:05.046Z,981.86
2019-02-18T08:52:04.693Z,981.75
2019-02-18T08:53:04.599Z,981.80
2019-02-18T08:54:04.578Z,981.69
2019-02-18T08:55:04.699Z,981.75
2019-02-18T08:56:04.857Z,981.69
2019-02-18T08:57:05.078Z,981.77
2019-02-18T08:58:05.563Z,981.80
2019-02-18T08:59:04.619Z,981.71
2019-02-18T09:00:04.901Z,981.80
2019-02-18T09:01:05.070Z,981.77
2019-02-18T09:02:04.753Z,981.74
2019-02-18T09:03:05.370Z,981.88
2019-02-18T09:04:04.472Z,981.85
2019-02-18T09:05:05.186Z,981.88
2019-02-18T09:06:04.765Z,981.68
2019-02-18T09:07:04.830Z,981.88
2019-02-18T09:08:05.667Z,981.85
2019-02-18T09:09:04.684Z,981.93
2019-02-18T09:10:04.808Z,981.73
2019-02-18T09:11:04.964Z,981.87
2019-02-18T09:12:04.643Z,981.81
2019-02-18T09:13:04.705Z,981.78
2019-02-18T09:14:04.885Z,981.87
2019-02-18T09:15:04.959Z,981.64
2019-02-18T09:16:05.054Z,981.81
2019-02-18T09:17:05.574Z,981.95
2019-02-18T09:18:04.808Z,981.61
2019-02-18T09:19:04.722Z,981.75
2019-02-18T09:20:05.497Z,981.69
2019-02-18T09:21:04.964Z,981.80
2019-02-18T09:22:05.464Z,981.60
2019-02-18T09:23:04.495Z,981.71
2019-02-18T09:24:04.746Z,981.57
2019-02-18T09:25:05.600Z,981.82
2019-02-18T09:26:04.540Z,981.68
2019-02-18T09:27:04.858Z,981.68
2019-02-18T09:28:05.025Z,981.74
2019-02-18T09:29:10.111Z,981.76
2019-02-18T09:30:04.509Z,981.70
2019-02-18T09:31:04.913Z,981.82
2019-02-18T09:32:05.136Z,981.67
2019-02-18T09:33:05.417Z,981.70
2019-02-18T09:34:04.623Z,981.78
2019-02-18T09:35:04.856Z,981.81
2019-02-18T09:36:05.470Z,981.72
2019-02-18T09:37:04.662Z,981.69
2019-02-18T09:38:05.398Z,981.89
2019-02-18T09:39:05.562Z,981.75
2019-02-18T09:40:04.783Z,981.66
2019-02-18T09:41:04.490Z,981.74
2019-02-18T09:42:04.632Z,981.77
2019-02-18T09:43:05.159Z,981.63
2019-02-18T09:44:05.423Z,981.74
2019-02-18T09:45:05.491Z,981.62
2019-02-18T09:46:04.562Z,981.60
2019-02-18T09:47:04.784Z,981.68
2019-02-18T09:48:04.888Z,981.62
2019-02-18T09:49:04.969Z,981.70
2019-02-18T09:50:05.311Z,981.68
2019-02-18T09:51:05.357Z,981.67
2019-02-18T09:52:04.641Z,981.79
2019-02-18T09:53:04.890Z,981.64
2019-02-18T09:54:04.874Z,981.67
2019-02-18T09:55:04.793Z,981.81
2019-02-18T09:56:04.904Z,981.72
2019-02-18T09:57:05.160Z,981.69
2019-02-18T09:58:04.936Z,981.72
2019-02-18T09:59:05.409Z,981.53
2019-02-18T10:00:04.802Z,981.57
2019-02-18T10:01:04.497Z,981.60
2019-02-18T10:02:05.341Z,981.63
2019-02-18T10:03:04.881Z,981.63
2019-02-18T10:04:04.907Z,981.62
2019-02-18T10:05:05.106Z,981.56
2019-02-18T10:06:05.158Z,981.59
2019-02-18T10:07:05.180Z,981.46
2019-02-18T10:08:04.955Z,981.49
2019-02-18T10:09:05.589Z,981.54
2019-02-18T10:10:05.245Z,981.64
2019-02-18T10:11:05.432Z,981.54
2019-02-18T10:12:05.540Z,981.51
2019-02-18T10:13:04.620Z,981.56
2019-02-18T10:14:04.914Z,981.58
2019-02-18T10:15:05.008Z,981.61
2019-02-18T10:16:04.533Z,981.56
2019-02-18T10:17:04.636Z,981.60
2019-02-18T10:18:04.774Z,981.56
2019-02-18T10:19:05.433Z,981.47
2019-02-18T10:20:04.526Z,981.44
2019-02-18T10:21:04.618Z,981.55
2019-02-18T10:22:04.982Z,981.55
2019-02-18T10:23:05.374Z,981.49
2019-02-18T10:24:04.510Z,981.46
2019-02-18T10:25:04.700Z,981.46
2019-02-18T10:26:04.812Z,981.51
2019-02-18T10:27:05.423Z,981.51
2019-02-18T10:28:04.975Z,981.43
2019-02-18T10:29:10.207Z,981.42
2019-02-18T10:30:04.667Z,981.48
2019-02-18T10:31:04.841Z,981.53
2019-02-18T10:32:05.017Z,981.48
2019-02-18T10:33:05.426Z,981.53
2019-02-18T10:34:05.143Z,981.39
2019-02-18T10:35:04.630Z,981.41
2019-02-18T10:36:04.640Z,981.53
2019-02-18T10:37:04.797Z,981.41
2019-02-18T10:38:05.367Z,981.44
2019-02-18T10:39:05.546Z,981.41
2019-02-18T10:40:04.688Z,981.41
2019-02-18T10:41:07.609Z,981.40
2019-02-18T10:42:05.420Z,981.43
2019-02-18T10:43:04.844Z,981.37
2019-02-18T10:44:05.400Z,981.31
2019-02-18T10:45:04.836Z,981.40
2019-02-18T10:46:05.204Z,981.40
2019-02-18T10:47:05.699Z,981.39
2019-02-18T10:48:05.422Z,981.36
2019-02-18T10:49:04.939Z,981.25
2019-02-18T10:50:04.763Z,981.30
2019-02-18T10:51:05.134Z,981.36
2019-02-18T10:52:05.283Z,981.36
2019-02-18T10:53:05.379Z,981.30
2019-02-18T10:54:05.061Z,981.30
2019-02-18T10:55:05.370Z,981.35
2019-02-18T10:56:04.816Z,981.18
2019-02-18T10:57:04.792Z,981.29
2019-02-18T10:58:04.605Z,981.15
2019-02-18T10:59:04.848Z,981.09
2019-02-18T11:00:04.514Z,981.26
2019-02-18T11:01:04.661Z,981.11
2019-02-18T11:02:05.129Z,981.31
2019-02-18T11:03:05.358Z,981.00
2019-02-18T11:04:04.601Z,981.08
2019-02-18T11:05:05.104Z,981.14
2019-02-18T11:06:05.519Z,981.16
2019-02-18T11:07:05.028Z,981.13
2019-02-18T11:08:04.950Z,981.13
2019-02-18T11:09:05.218Z,981.10
2019-02-18T11:10:04.871Z,981.10
2019-02-18T11:11:05.143Z,981.18
2019-02-18T11:12:05.002Z,981.15
2019-02-18T11:13:05.162Z,981.26
2019-02-18T11:14:05.803Z,981.12
2019-02-18T11:15:05.322Z,981.06
2019-02-18T11:16:05.452Z,981.06
2019-02-18T11:17:05.103Z,981.20
2019-02-18T11:18:05.422Z,980.97
2019-02-18T11:19:04.534Z,981.06
2019-02-18T11:20:05.266Z,981.03
2019-02-18T11:21:05.378Z,981.05
2019-02-18T11:22:05.017Z,980.88
2019-02-18T11:23:05.352Z,981.02
2019-02-18T11:24:04.503Z,981.02
2019-02-18T11:25:05.047Z,980.99
2019-02-18T11:26:05.121Z,980.87
2019-02-18T11:27:04.585Z,980.93
2019-02-18T11:28:04.934Z,980.84
2019-02-18T11:29:10.281Z,980.93
2019-02-18T11:30:05.389Z,981.01
2019-02-18T11:31:05.456Z,981.04
2019-02-18T11:32:04.671Z,980.87
2019-02-18T11:33:04.785Z,980.95
2019-02-18T11:34:05.055Z,980.89
2019-02-18T11:35:05.287Z,980.92
2019-02-18T11:36:04.890Z,980.92
2019-02-18T11:37:05.000Z,981.00
2019-02-18T11:38:05.805Z,980.80
2019-02-18T11:39:05.045Z,981.00
2019-02-18T11:40:05.337Z,980.91
2019-02-18T11:41:05.403Z,980.97
2019-02-18T11:42:04.949Z,980.91
2019-02-18T11:43:05.102Z,980.88
2019-02-18T11:44:05.476Z,980.91
2019-02-18T11:45:04.673Z,980.96
2019-02-18T11:46:05.300Z,980.76
2019-02-18T11:47:04.964Z,980.82
2019-02-18T11:48:04.704Z,980.76
2019-02-18T11:49:05.239Z,980.76
2019-02-18T11:50:05.257Z,980.76
2019-02-18T11:51:05.291Z,980.67
2019-02-18T11:52:04.705Z,980.81
2019-02-18T11:53:05.276Z,980.73
2019-02-18T11:54:05.807Z,980.58
2019-02-18T11:55:05.463Z,980.72
2019-02-18T11:56:04.843Z,980.75
2019-02-18T11:57:04.938Z,980.64
2019-02-18T11:58:05.054Z,980.69
2019-02-18T11:59:05.234Z,980.63
2019-02-18T12:00:05.459Z,980.72
2019-02-18T12:01:04.599Z,980.66
2019-02-18T12:02:05.053Z,980.75
2019-02-18T12:03:12.764Z,980.52
2019-02-18T12:04:04.628Z,980.66
2019-02-18T12:05:04.610Z,980.48
2019-02-18T12:06:04.927Z,980.48
2019-02-18T12:07:05.557Z,980.57
2019-02-18T12:08:05.013Z,980.54
2019-02-18T12:09:05.663Z,980.51
2019-02-18T12:10:04.759Z,980.51
2019-02-18T12:11:05.087Z,980.48
2019-02-18T12:12:05.488Z,980.39
2019-02-18T12:13:04.637Z,980.42
2019-02-18T12:14:04.538Z,980.36
2019-02-18T12:15:04.708Z,980.42
2019-02-18T12:16:04.919Z,980.33
2019-02-18T12:17:05.376Z,980.33
2019-02-18T12:18:04.777Z,980.30
2019-02-18T12:19:05.070Z,980.30
2019-02-18T12:20:05.329Z,980.35
2019-02-18T12:21:05.488Z,980.32
2019-02-18T12:22:05.131Z,980.29
2019-02-18T12:23:05.176Z,980.29
2019-02-18T12:24:05.038Z,980.23
2019-02-18T12:25:05.453Z,980.29
2019-02-18T12:26:04.848Z,980.18
2019-02-18T12:27:04.996Z,980.10
2019-02-18T12:28:05.294Z,980.18